sensor_id;sensor_type;location;lat;lon;timestamp;temperature;humidity
60033;DHT22;45905;50.570;10.428;2024-01-10T00:01:06;-9.60;99.90
60033;DHT22;45905;50.570;10.428;2024-01-10T00:03:35;-9.50;99.90
60033;DHT22;45905;50.570;10.428;2024-01-10T00:06:03;-9.50;99.90
60033;DHT22;45905;50.570;10.428;2024-01-10T00:08:32;-9.40;99.90
60033;DHT22;45905;50.570;10.428;2024-01-10T00:11:00;-9.40;99.90
60033;DHT22;45905;50.570;10.428;2024-01-10T00:13:31;-9.30;99.90
60033;DHT22;45905;50.570;10.428;2024-01-10T00:15:59;-9.30;99.90
60033;DHT22;45905;50.570;10.428;2024-01-10T00:18:26;-9.30;99.90
60033;DHT22;45905;50.570;10.428;2024-01-10T00:20:55;-9.30;99.90
60033;DHT22;45905;50.570;10.428;2024-01-10T00:23:23;-9.30;99.90
60033;DHT22;45905;50.570;10.428;2024-01-10T00:25:51;-9.30;99.90
60033;DHT22;45905;50.570;10.428;2024-01-10T00:28:18;-9.30;99.90
60033;DHT22;45905;50.570;10.428;2024-01-10T00:30:46;-9.40;99.90
60033;DHT22;45905;50.570;10.428;2024-01-10T00:33:15;-9.40;99.90
60033;DHT22;45905;50.570;10.428;2024-01-10T00:35:43;-9.40;99.90
60033;DHT22;45905;50.570;10.428;2024-01-10T00:38:11;-9.40;99.90
60033;DHT22;45905;50.570;10.428;2024-01-10T00:40:39;-9.40;99.90
60033;DHT22;45905;50.570;10.428;2024-01-10T00:43:07;-9.40;99.90
60033;DHT22;45905;50.570;10.428;2024-01-10T00:45:35;-9.40;99.90
60033;DHT22;45905;50.570;10.428;2024-01-10T00:48:03;-9.40;99.90
60033;DHT22;45905;50.570;10.428;2024-01-10T00:50:31;-9.30;99.90
60033;DHT22;45905;50.570;10.428;2024-01-10T00:53:00;-9.40;99.90
60033;DHT22;45905;50.570;10.428;2024-01-10T00:55:28;-9.40;99.90
60033;DHT22;45905;50.570;10.428;2024-01-10T00:57:56;-9.30;99.90
60033;DHT22;45905;50.570;10.428;2024-01-10T01:00:24;-9.30;99.90
60033;DHT22;45905;50.570;10.428;2024-01-10T01:02:51;-9.30;99.90
60033;DHT22;45905;50.570;10.428;2024-01-10T01:05:20;-9.20;99.90
60033;DHT22;45905;50.570;10.428;2024-01-10T01:07:48;-9.20;99.90
60033;DHT22;45905;50.570;10.428;2024-01-10T01:10:16;-9.20;99.90
60033;DHT22;45905;50.570;10.428;2024-01-10T01:12:45;-9.20;99.90
60033;DHT22;45905;50.570;10.428;2024-01-10T01:15:13;-9.30;99.90
60033;DHT22;45905;50.570;10.428;2024-01-10T01:17:40;-9.30;99.90
60033;DHT22;45905;50.570;10.428;2024-01-10T01:20:08;-9.20;99.90
60033;DHT22;45905;50.570;10.428;2024-01-10T01:22:36;-9.20;99.90
60033;DHT22;45905;50.570;10.428;2024-01-10T01:25:04;-9.20;99.90
60033;DHT22;45905;50.570;10.428;2024-01-10T01:27:32;-9.20;99.90
60033;DHT22;45905;50.570;10.428;2024-01-10T01:29:59;-9.20;99.90
60033;DHT22;45905;50.570;10.428;2024-01-10T01:32:27;-9.20;99.90
60033;DHT22;45905;50.570;10.428;2024-01-10T01:34:56;-9.20;99.90
60033;DHT22;45905;50.570;10.428;2024-01-10T01:37:23;-9.20;99.90
60033;DHT22;45905;50.570;10.428;2024-01-10T01:39:50;-9.20;99.90
60033;DHT22;45905;50.570;10.428;2024-01-10T01:42:18;-9.30;99.90
60033;DHT22;45905;50.570;10.428;2024-01-10T01:44:45;-9.30;99.90
60033;DHT22;45905;50.570;10.428;2024-01-10T01:47:13;-9.30;99.90
60033;DHT22;45905;50.570;10.428;2024-01-10T01:49:42;-9.30;99.90
60033;DHT22;45905;50.570;10.428;2024-01-10T01:52:11;-9.30;99.90
60033;DHT22;45905;50.570;10.428;2024-01-10T01:54:39;-9.30;99.90
60033;DHT22;45905;50.570;10.428;2024-01-10T01:57:11;-9.30;99.90
60033;DHT22;45905;50.570;10.428;2024-01-10T01:59:40;-9.20;99.90
60033;DHT22;45905;50.570;10.428;2024-01-10T02:02:08;-9.30;99.90
60033;DHT22;45905;50.570;10.428;2024-01-10T02:04:36;-9.20;99.90
60033;DHT22;45905;50.570;10.428;2024-01-10T02:07:04;-9.30;99.90
60033;DHT22;45905;50.570;10.428;2024-01-10T02:09:32;-9.30;99.90
60033;DHT22;45905;50.570;10.428;2024-01-10T02:12:00;-9.30;99.90
60033;DHT22;45905;50.570;10.428;2024-01-10T02:14:27;-9.30;99.90
60033;DHT22;45905;50.570;10.428;2024-01-10T02:16:55;-9.30;99.90
60033;DHT22;45905;50.570;10.428;2024-01-10T02:19:23;-9.30;99.90
60033;DHT22;45905;50.570;10.428;2024-01-10T02:21:53;-9.30;99.90
60033;DHT22;45905;50.570;10.428;2024-01-10T02:24:21;-9.30;99.90
60033;DHT22;45905;50.570;10.428;2024-01-10T02:26:48;-9.30;99.90
60033;DHT22;45905;50.570;10.428;2024-01-10T02:29:17;-9.30;99.90
60033;DHT22;45905;50.570;10.428;2024-01-10T02:31:45;-9.30;99.90
60033;DHT22;45905;50.570;10.428;2024-01-10T02:34:13;-9.40;99.90
60033;DHT22;45905;50.570;10.428;2024-01-10T02:36:40;-9.40;99.90
60033;DHT22;45905;50.570;10.428;2024-01-10T02:39:08;-9.40;99.90
60033;DHT22;45905;50.570;10.428;2024-01-10T02:41:35;-9.40;99.90
60033;DHT22;45905;50.570;10.428;2024-01-10T02:44:03;-9.40;99.90
60033;DHT22;45905;50.570;10.428;2024-01-10T02:46:31;-9.40;99.90
60033;DHT22;45905;50.570;10.428;2024-01-10T02:48:58;-9.50;99.90
60033;DHT22;45905;50.570;10.428;2024-01-10T02:51:27;-9.60;99.90
60033;DHT22;45905;50.570;10.428;2024-01-10T02:53:55;-9.60;99.90
60033;DHT22;45905;50.570;10.428;2024-01-10T02:56:22;-9.60;99.90
60033;DHT22;45905;50.570;10.428;2024-01-10T02:58:50;-9.60;99.90
60033;DHT22;45905;50.570;10.428;2024-01-10T03:01:18;-9.60;99.90
60033;DHT22;45905;50.570;10.428;2024-01-10T03:03:46;-9.60;99.90
60033;DHT22;45905;50.570;10.428;2024-01-10T03:06:13;-9.50;99.90
60033;DHT22;45905;50.570;10.428;2024-01-10T03:08:43;-9.50;99.90
60033;DHT22;45905;50.570;10.428;2024-01-10T03:11:10;-9.50;99.90
60033;DHT22;45905;50.570;10.428;2024-01-10T03:13:38;-9.50;99.90
60033;DHT22;45905;50.570;10.428;2024-01-10T03:16:31;-9.50;99.90
60033;DHT22;45905;50.570;10.428;2024-01-10T03:18:58;-9.50;99.90
60033;DHT22;45905;50.570;10.428;2024-01-10T03:21:27;-9.50;99.90
60033;DHT22;45905;50.570;10.428;2024-01-10T03:23:56;-9.50;99.90
60033;DHT22;45905;50.570;10.428;2024-01-10T03:26:24;-9.50;99.90
60033;DHT22;45905;50.570;10.428;2024-01-10T03:28:53;-9.50;99.90
60033;DHT22;45905;50.570;10.428;2024-01-10T03:31:21;-9.40;99.90
60033;DHT22;45905;50.570;10.428;2024-01-10T03:33:49;-9.40;99.90
60033;DHT22;45905;50.570;10.428;2024-01-10T03:36:18;-9.40;99.90
60033;DHT22;45905;50.570;10.428;2024-01-10T03:38:45;-9.40;99.90
60033;DHT22;45905;50.570;10.428;2024-01-10T03:41:14;-9.50;99.90
60033;DHT22;45905;50.570;10.428;2024-01-10T03:43:42;-9.50;99.90
60033;DHT22;45905;50.570;10.428;2024-01-10T03:46:11;-9.50;99.90
60033;DHT22;45905;50.570;10.428;2024-01-10T03:48:38;-9.50;99.90
60033;DHT22;45905;50.570;10.428;2024-01-10T03:51:16;-9.40;99.90
60033;DHT22;45905;50.570;10.428;2024-01-10T03:53:45;-9.40;99.90
60033;DHT22;45905;50.570;10.428;2024-01-10T03:56:13;-9.50;99.90
60033;DHT22;45905;50.570;10.428;2024-01-10T03:58:41;-9.50;99.90
60033;DHT22;45905;50.570;10.428;2024-01-10T04:01:09;-9.50;99.90
60033;DHT22;45905;50.570;10.428;2024-01-10T04:03:38;-9.50;99.90
60033;DHT22;45905;50.570;10.428;2024-01-10T04:06:09;-9.50;99.90
60033;DHT22;45905;50.570;10.428;2024-01-10T04:08:36;-9.60;99.90
60033;DHT22;45905;50.570;10.428;2024-01-10T04:11:34;-9.60;99.90
60033;DHT22;45905;50.570;10.428;2024-01-10T04:14:02;-9.50;99.90
60033;DHT22;45905;50.570;10.428;2024-01-10T04:16:32;-9.60;99.90
60033;DHT22;45905;50.570;10.428;2024-01-10T04:18:59;-9.60;99.90
60033;DHT22;45905;50.570;10.428;2024-01-10T04:21:26;-9.60;99.90
60033;DHT22;45905;50.570;10.428;2024-01-10T04:23:54;-9.60;99.90
60033;DHT22;45905;50.570;10.428;2024-01-10T04:26:22;-9.60;99.90
60033;DHT22;45905;50.570;10.428;2024-01-10T04:28:50;-9.70;99.90
60033;DHT22;45905;50.570;10.428;2024-01-10T04:31:20;-9.60;99.90
60033;DHT22;45905;50.570;10.428;2024-01-10T04:33:47;-9.80;99.90
60033;DHT22;45905;50.570;10.428;2024-01-10T04:36:15;-9.90;99.90
60033;DHT22;45905;50.570;10.428;2024-01-10T04:38:44;-9.90;99.90
60033;DHT22;45905;50.570;10.428;2024-01-10T04:41:11;-10.00;99.90
60033;DHT22;45905;50.570;10.428;2024-01-10T04:43:39;-10.10;99.90
60033;DHT22;45905;50.570;10.428;2024-01-10T04:46:08;-10.10;99.90
60033;DHT22;45905;50.570;10.428;2024-01-10T04:48:37;-10.40;99.90
60033;DHT22;45905;50.570;10.428;2024-01-10T04:51:05;-10.10;99.90
60033;DHT22;45905;50.570;10.428;2024-01-10T04:53:32;-10.00;99.90
60033;DHT22;45905;50.570;10.428;2024-01-10T04:56:00;-9.90;99.90
60033;DHT22;45905;50.570;10.428;2024-01-10T04:58:29;-9.90;99.90
60033;DHT22;45905;50.570;10.428;2024-01-10T05:00:56;-9.90;99.90
60033;DHT22;45905;50.570;10.428;2024-01-10T05:03:24;-9.90;99.90
60033;DHT22;45905;50.570;10.428;2024-01-10T05:05:52;-9.80;99.90
60033;DHT22;45905;50.570;10.428;2024-01-10T05:08:20;-9.80;99.90
60033;DHT22;45905;50.570;10.428;2024-01-10T05:10:48;-9.80;99.90
60033;DHT22;45905;50.570;10.428;2024-01-10T05:13:15;-9.70;99.90
60033;DHT22;45905;50.570;10.428;2024-01-10T05:15:43;-9.70;99.90
60033;DHT22;45905;50.570;10.428;2024-01-10T05:18:12;-9.70;99.90
60033;DHT22;45905;50.570;10.428;2024-01-10T05:20:40;-9.70;99.90
60033;DHT22;45905;50.570;10.428;2024-01-10T05:23:07;-9.60;99.90
60033;DHT22;45905;50.570;10.428;2024-01-10T05:25:35;-9.60;99.90
60033;DHT22;45905;50.570;10.428;2024-01-10T05:28:03;-9.60;99.90
60033;DHT22;45905;50.570;10.428;2024-01-10T05:30:30;-9.60;99.90
60033;DHT22;45905;50.570;10.428;2024-01-10T05:33:01;-9.70;99.90
60033;DHT22;45905;50.570;10.428;2024-01-10T05:35:29;-9.70;99.90
60033;DHT22;45905;50.570;10.428;2024-01-10T05:37:56;-9.80;99.90
60033;DHT22;45905;50.570;10.428;2024-01-10T05:40:24;-9.70;99.90
60033;DHT22;45905;50.570;10.428;2024-01-10T05:42:53;-9.70;99.90
60033;DHT22;45905;50.570;10.428;2024-01-10T05:45:21;-9.70;99.90
60033;DHT22;45905;50.570;10.428;2024-01-10T05:47:48;-9.70;99.90
60033;DHT22;45905;50.570;10.428;2024-01-10T05:50:16;-9.70;99.90
60033;DHT22;45905;50.570;10.428;2024-01-10T05:52:44;-9.70;99.90
60033;DHT22;45905;50.570;10.428;2024-01-10T05:55:15;-9.60;99.90
60033;DHT22;45905;50.570;10.428;2024-01-10T05:57:43;-9.60;99.90
60033;DHT22;45905;50.570;10.428;2024-01-10T06:00:11;-9.60;99.90
60033;DHT22;45905;50.570;10.428;2024-01-10T06:02:41;-9.60;99.90
60033;DHT22;45905;50.570;10.428;2024-01-10T06:05:10;-9.50;99.90
60033;DHT22;45905;50.570;10.428;2024-01-10T06:07:39;-9.50;99.90
60033;DHT22;45905;50.570;10.428;2024-01-10T06:10:10;-9.60;99.90
60033;DHT22;45905;50.570;10.428;2024-01-10T06:12:38;-9.60;99.90
60033;DHT22;45905;50.570;10.428;2024-01-10T06:15:07;-9.60;99.90
60033;DHT22;45905;50.570;10.428;2024-01-10T06:17:35;-9.60;99.90
60033;DHT22;45905;50.570;10.428;2024-01-10T06:20:05;-9.60;99.90
60033;DHT22;45905;50.570;10.428;2024-01-10T06:22:34;-9.60;99.90
60033;DHT22;45905;50.570;10.428;2024-01-10T06:25:02;-9.60;99.90
60033;DHT22;45905;50.570;10.428;2024-01-10T06:27:33;-9.60;99.90
60033;DHT22;45905;50.570;10.428;2024-01-10T06:30:00;-9.60;99.90
60033;DHT22;45905;50.570;10.428;2024-01-10T06:32:32;-9.60;99.90
60033;DHT22;45905;50.570;10.428;2024-01-10T06:35:02;-9.60;99.90
60033;DHT22;45905;50.570;10.428;2024-01-10T06:37:31;-9.60;99.90
60033;DHT22;45905;50.570;10.428;2024-01-10T06:40:00;-9.60;99.90
60033;DHT22;45905;50.570;10.428;2024-01-10T06:42:29;-9.70;99.90
60033;DHT22;45905;50.570;10.428;2024-01-10T06:44:57;-9.70;99.90
60033;DHT22;45905;50.570;10.428;2024-01-10T06:47:27;-9.70;99.90
60033;DHT22;45905;50.570;10.428;2024-01-10T06:49:55;-9.70;99.90
60033;DHT22;45905;50.570;10.428;2024-01-10T06:52:23;-9.60;99.90
60033;DHT22;45905;50.570;10.428;2024-01-10T06:54:50;-9.60;99.90
60033;DHT22;45905;50.570;10.428;2024-01-10T06:57:17;-9.60;99.90
60033;DHT22;45905;50.570;10.428;2024-01-10T06:59:45;-9.50;99.90
60033;DHT22;45905;50.570;10.428;2024-01-10T07:02:12;-9.50;99.90
60033;DHT22;45905;50.570;10.428;2024-01-10T07:04:40;-9.50;99.90
60033;DHT22;45905;50.570;10.428;2024-01-10T07:07:07;-9.50;99.90
60033;DHT22;45905;50.570;10.428;2024-01-10T07:09:36;-9.50;99.90
60033;DHT22;45905;50.570;10.428;2024-01-10T07:12:08;-9.50;99.90
60033;DHT22;45905;50.570;10.428;2024-01-10T07:14:38;-9.50;99.90
60033;DHT22;45905;50.570;10.428;2024-01-10T07:17:08;-9.50;99.90
60033;DHT22;45905;50.570;10.428;2024-01-10T07:19:35;-9.50;99.90
60033;DHT22;45905;50.570;10.428;2024-01-10T07:22:03;-9.50;99.90
60033;DHT22;45905;50.570;10.428;2024-01-10T07:24:31;-9.50;99.90
60033;DHT22;45905;50.570;10.428;2024-01-10T07:26:58;-9.50;99.90
60033;DHT22;45905;50.570;10.428;2024-01-10T07:29:26;-9.50;99.90
60033;DHT22;45905;50.570;10.428;2024-01-10T07:31:54;-9.50;99.90
60033;DHT22;45905;50.570;10.428;2024-01-10T07:34:22;-9.50;99.90
60033;DHT22;45905;50.570;10.428;2024-01-10T07:36:50;-9.50;99.90
60033;DHT22;45905;50.570;10.428;2024-01-10T07:39:18;-9.50;99.90
60033;DHT22;45905;50.570;10.428;2024-01-10T07:41:46;-9.50;99.90
60033;DHT22;45905;50.570;10.428;2024-01-10T07:44:17;-9.50;99.90
60033;DHT22;45905;50.570;10.428;2024-01-10T07:46:45;-9.50;99.90
60033;DHT22;45905;50.570;10.428;2024-01-10T07:49:12;-9.40;99.90
60033;DHT22;45905;50.570;10.428;2024-01-10T07:51:40;-9.40;99.90
60033;DHT22;45905;50.570;10.428;2024-01-10T07:54:07;-9.40;99.90
60033;DHT22;45905;50.570;10.428;2024-01-10T07:56:34;-9.40;99.90
60033;DHT22;45905;50.570;10.428;2024-01-10T07:59:03;-9.40;99.90
60033;DHT22;45905;50.570;10.428;2024-01-10T08:01:32;-9.40;99.90
60033;DHT22;45905;50.570;10.428;2024-01-10T08:04:01;-9.50;99.90
60033;DHT22;45905;50.570;10.428;2024-01-10T08:06:28;-9.50;99.90
60033;DHT22;45905;50.570;10.428;2024-01-10T08:08:59;-9.50;99.90
60033;DHT22;45905;50.570;10.428;2024-01-10T08:11:27;-9.50;99.90
60033;DHT22;45905;50.570;10.428;2024-01-10T08:13:55;-9.50;99.90
60033;DHT22;45905;50.570;10.428;2024-01-10T08:16:23;-9.40;99.90
60033;DHT22;45905;50.570;10.428;2024-01-10T08:18:50;-9.40;99.90
60033;DHT22;45905;50.570;10.428;2024-01-10T08:21:18;-9.40;99.90
60033;DHT22;45905;50.570;10.428;2024-01-10T08:23:47;-9.30;99.90
60033;DHT22;45905;50.570;10.428;2024-01-10T08:26:15;-9.30;99.90
60033;DHT22;45905;50.570;10.428;2024-01-10T08:28:43;-9.10;99.90
60033;DHT22;45905;50.570;10.428;2024-01-10T08:31:10;-9.20;99.90
60033;DHT22;45905;50.570;10.428;2024-01-10T08:33:40;-9.20;99.90
60033;DHT22;45905;50.570;10.428;2024-01-10T08:36:08;-9.20;99.90
60033;DHT22;45905;50.570;10.428;2024-01-10T08:38:40;-9.20;99.90
60033;DHT22;45905;50.570;10.428;2024-01-10T08:41:09;-9.20;99.90
60033;DHT22;45905;50.570;10.428;2024-01-10T08:43:39;-9.20;99.90
60033;DHT22;45905;50.570;10.428;2024-01-10T08:46:06;-9.20;99.90
60033;DHT22;45905;50.570;10.428;2024-01-10T08:48:34;-9.10;99.90
60033;DHT22;45905;50.570;10.428;2024-01-10T08:51:05;-9.10;99.90
60033;DHT22;45905;50.570;10.428;2024-01-10T08:53:32;-9.10;99.90
60033;DHT22;45905;50.570;10.428;2024-01-10T08:56:00;-9.10;99.90
60033;DHT22;45905;50.570;10.428;2024-01-10T08:58:27;-9.00;99.90
60033;DHT22;45905;50.570;10.428;2024-01-10T09:00:54;-9.10;99.90
60033;DHT22;45905;50.570;10.428;2024-01-10T09:03:22;-9.10;99.90
60033;DHT22;45905;50.570;10.428;2024-01-10T09:05:50;-9.10;99.90
60033;DHT22;45905;50.570;10.428;2024-01-10T09:08:35;-9.00;99.90
60033;DHT22;45905;50.570;10.428;2024-01-10T09:11:02;-9.00;99.90
60033;DHT22;45905;50.570;10.428;2024-01-10T09:13:34;-9.00;99.90
60033;DHT22;45905;50.570;10.428;2024-01-10T09:16:01;-9.00;99.90
60033;DHT22;45905;50.570;10.428;2024-01-10T09:18:29;-9.00;99.90
60033;DHT22;45905;50.570;10.428;2024-01-10T09:20:56;-9.00;99.90
60033;DHT22;45905;50.570;10.428;2024-01-10T09:23:30;-9.00;99.90
60033;DHT22;45905;50.570;10.428;2024-01-10T09:26:03;-9.00;99.90
60033;DHT22;45905;50.570;10.428;2024-01-10T09:28:31;-9.00;99.90
60033;DHT22;45905;50.570;10.428;2024-01-10T09:30:58;-8.90;99.90
60033;DHT22;45905;50.570;10.428;2024-01-10T09:33:27;-8.90;99.90
60033;DHT22;45905;50.570;10.428;2024-01-10T09:35:55;-8.90;99.90
60033;DHT22;45905;50.570;10.428;2024-01-10T09:38:27;-8.90;99.90
60033;DHT22;45905;50.570;10.428;2024-01-10T09:40:59;-8.80;99.90
60033;DHT22;45905;50.570;10.428;2024-01-10T09:43:33;-8.80;99.90
60033;DHT22;45905;50.570;10.428;2024-01-10T09:46:01;-8.70;99.90
60033;DHT22;45905;50.570;10.428;2024-01-10T09:48:32;-8.70;99.90
60033;DHT22;45905;50.570;10.428;2024-01-10T09:51:00;-8.60;99.90
60033;DHT22;45905;50.570;10.428;2024-01-10T09:53:28;-8.60;99.90
60033;DHT22;45905;50.570;10.428;2024-01-10T09:56:04;-8.50;99.90
60033;DHT22;45905;50.570;10.428;2024-01-10T09:58:31;-8.40;99.90
60033;DHT22;45905;50.570;10.428;2024-01-10T10:01:06;-8.40;99.90
60033;DHT22;45905;50.570;10.428;2024-01-10T10:03:36;-8.40;99.90
60033;DHT22;45905;50.570;10.428;2024-01-10T10:06:05;-8.30;99.90
60033;DHT22;45905;50.570;10.428;2024-01-10T10:08:37;-8.20;99.90
60033;DHT22;45905;50.570;10.428;2024-01-10T10:11:05;-8.20;99.90
60033;DHT22;45905;50.570;10.428;2024-01-10T10:13:32;-8.10;99.90
60033;DHT22;45905;50.570;10.428;2024-01-10T10:16:03;-8.10;99.90
60033;DHT22;45905;50.570;10.428;2024-01-10T10:18:32;-8.00;99.90
60033;DHT22;45905;50.570;10.428;2024-01-10T10:21:11;-7.90;99.90
60033;DHT22;45905;50.570;10.428;2024-01-10T10:23:42;-7.90;99.90
60033;DHT22;45905;50.570;10.428;2024-01-10T10:26:26;-7.80;99.90
60033;DHT22;45905;50.570;10.428;2024-01-10T10:28:57;-7.70;99.90
60033;DHT22;45905;50.570;10.428;2024-01-10T10:31:25;-7.70;99.90
60033;DHT22;45905;50.570;10.428;2024-01-10T10:33:53;-7.60;99.90
60033;DHT22;45905;50.570;10.428;2024-01-10T10:36:22;-7.50;99.90
60033;DHT22;45905;50.570;10.428;2024-01-10T10:38:50;-7.50;99.90
60033;DHT22;45905;50.570;10.428;2024-01-10T10:41:20;-7.40;99.90
60033;DHT22;45905;50.570;10.428;2024-01-10T10:43:49;-7.30;99.90
60033;DHT22;45905;50.570;10.428;2024-01-10T10:46:20;-7.30;99.90
60033;DHT22;45905;50.570;10.428;2024-01-10T10:48:51;-7.20;99.90
60033;DHT22;45905;50.570;10.428;2024-01-10T10:51:32;-7.20;99.90
60033;DHT22;45905;50.570;10.428;2024-01-10T10:54:03;-7.10;99.90
60033;DHT22;45905;50.570;10.428;2024-01-10T10:56:33;-7.00;99.90
60033;DHT22;45905;50.570;10.428;2024-01-10T10:59:04;-6.90;99.90
60033;DHT22;45905;50.570;10.428;2024-01-10T11:01:33;-6.90;99.90
60033;DHT22;45905;50.570;10.428;2024-01-10T11:04:02;-6.80;99.90
60033;DHT22;45905;50.570;10.428;2024-01-10T11:06:32;-6.70;99.90
60033;DHT22;45905;50.570;10.428;2024-01-10T11:09:06;-6.70;99.90
60033;DHT22;45905;50.570;10.428;2024-01-10T11:15:24;-6.50;99.90
60033;DHT22;45905;50.570;10.428;2024-01-10T11:21:22;-6.10;99.90
60033;DHT22;45905;50.570;10.428;2024-01-10T11:23:59;-5.90;99.90
60033;DHT22;45905;50.570;10.428;2024-01-10T11:26:28;-5.50;99.90
60033;DHT22;45905;50.570;10.428;2024-01-10T11:28:57;-5.60;99.90
60033;DHT22;45905;50.570;10.428;2024-01-10T11:31:50;-5.50;99.90
60033;DHT22;45905;50.570;10.428;2024-01-10T11:34:24;-5.30;99.90
60033;DHT22;45905;50.570;10.428;2024-01-10T11:37:14;-5.20;99.90
60033;DHT22;45905;50.570;10.428;2024-01-10T11:39:42;-4.90;99.90
60033;DHT22;45905;50.570;10.428;2024-01-10T11:42:11;-4.80;99.90
60033;DHT22;45905;50.570;10.428;2024-01-10T11:44:49;-4.50;99.90
60033;DHT22;45905;50.570;10.428;2024-01-10T11:47:17;-4.50;99.90
60033;DHT22;45905;50.570;10.428;2024-01-10T11:49:57;-4.40;99.90
60033;DHT22;45905;50.570;10.428;2024-01-10T11:52:32;-4.30;99.90
60033;DHT22;45905;50.570;10.428;2024-01-10T11:55:03;-4.20;99.90
60033;DHT22;45905;50.570;10.428;2024-01-10T11:57:34;-4.10;99.90
60033;DHT22;45905;50.570;10.428;2024-01-10T12:00:02;-4.00;99.90
60033;DHT22;45905;50.570;10.428;2024-01-10T12:02:32;-3.80;99.90
60033;DHT22;45905;50.570;10.428;2024-01-10T12:05:01;-3.80;99.90
60033;DHT22;45905;50.570;10.428;2024-01-10T12:07:29;-3.40;99.90
60033;DHT22;45905;50.570;10.428;2024-01-10T12:09:56;-3.20;99.90
60033;DHT22;45905;50.570;10.428;2024-01-10T12:12:24;-3.10;99.90
60033;DHT22;45905;50.570;10.428;2024-01-10T12:14:52;-2.70;99.90
60033;DHT22;45905;50.570;10.428;2024-01-10T12:17:19;-2.80;99.90
60033;DHT22;45905;50.570;10.428;2024-01-10T12:19:47;-2.70;99.90
60033;DHT22;45905;50.570;10.428;2024-01-10T12:22:18;-2.60;99.90
60033;DHT22;45905;50.570;10.428;2024-01-10T12:24:50;-2.30;99.90
60033;DHT22;45905;50.570;10.428;2024-01-10T12:27:20;-2.30;99.90
60033;DHT22;45905;50.570;10.428;2024-01-10T12:29:50;-1.80;99.90
60033;DHT22;45905;50.570;10.428;2024-01-10T12:32:19;-2.00;99.90
60033;DHT22;45905;50.570;10.428;2024-01-10T12:34:59;-2.10;99.90
60033;DHT22;45905;50.570;10.428;2024-01-10T12:37:29;-2.10;99.90
60033;DHT22;45905;50.570;10.428;2024-01-10T12:39:57;-2.00;99.90
60033;DHT22;45905;50.570;10.428;2024-01-10T12:42:24;-1.90;99.90
60033;DHT22;45905;50.570;10.428;2024-01-10T12:44:54;-1.90;99.90
60033;DHT22;45905;50.570;10.428;2024-01-10T12:47:23;-1.60;99.90
60033;DHT22;45905;50.570;10.428;2024-01-10T12:49:53;-1.70;99.90
60033;DHT22;45905;50.570;10.428;2024-01-10T12:52:21;-1.20;99.90
60033;DHT22;45905;50.570;10.428;2024-01-10T12:54:51;-1.60;99.90
60033;DHT22;45905;50.570;10.428;2024-01-10T12:57:20;-1.60;99.90
60033;DHT22;45905;50.570;10.428;2024-01-10T12:59:47;-1.60;99.90
60033;DHT22;45905;50.570;10.428;2024-01-10T13:02:15;-1.60;99.90
60033;DHT22;45905;50.570;10.428;2024-01-10T13:04:43;-1.60;99.90
60033;DHT22;45905;50.570;10.428;2024-01-10T13:07:10;-1.40;99.90
60033;DHT22;45905;50.570;10.428;2024-01-10T13:09:38;-1.60;99.90
60033;DHT22;45905;50.570;10.428;2024-01-10T13:12:05;-1.50;99.90
60033;DHT22;45905;50.570;10.428;2024-01-10T13:14:33;-1.60;99.90
60033;DHT22;45905;50.570;10.428;2024-01-10T13:17:01;-1.50;99.90
60033;DHT22;45905;50.570;10.428;2024-01-10T13:19:28;-1.60;99.90
60033;DHT22;45905;50.570;10.428;2024-01-10T13:21:56;-1.50;99.90
60033;DHT22;45905;50.570;10.428;2024-01-10T13:24:23;-1.60;99.90
60033;DHT22;45905;50.570;10.428;2024-01-10T13:26:51;-1.60;99.90
60033;DHT22;45905;50.570;10.428;2024-01-10T13:29:18;-1.60;99.90
60033;DHT22;45905;50.570;10.428;2024-01-10T13:31:46;-1.40;99.90
60033;DHT22;45905;50.570;10.428;2024-01-10T13:34:17;-1.80;99.90
60033;DHT22;45905;50.570;10.428;2024-01-10T13:39:13;-1.50;99.90
60033;DHT22;45905;50.570;10.428;2024-01-10T13:41:42;-1.60;99.90
60033;DHT22;45905;50.570;10.428;2024-01-10T13:44:10;-1.50;99.90
60033;DHT22;45905;50.570;10.428;2024-01-10T13:46:38;-1.50;99.90
60033;DHT22;45905;50.570;10.428;2024-01-10T13:49:05;-1.30;99.90
60033;DHT22;45905;50.570;10.428;2024-01-10T13:51:33;-1.20;99.90
60033;DHT22;45905;50.570;10.428;2024-01-10T14:01:27;-1.20;99.90
60033;DHT22;45905;50.570;10.428;2024-01-10T14:03:54;-1.10;99.90
60033;DHT22;45905;50.570;10.428;2024-01-10T14:06:22;-0.70;99.90
60033;DHT22;45905;50.570;10.428;2024-01-10T14:08:50;-1.00;99.90
60033;DHT22;45905;50.570;10.428;2024-01-10T14:11:17;-0.60;99.90
60033;DHT22;45905;50.570;10.428;2024-01-10T14:13:45;-0.80;99.90
60033;DHT22;45905;50.570;10.428;2024-01-10T14:16:13;-0.80;99.90
60033;DHT22;45905;50.570;10.428;2024-01-10T14:18:41;-0.80;99.90
60033;DHT22;45905;50.570;10.428;2024-01-10T14:21:08;-0.70;99.90
60033;DHT22;45905;50.570;10.428;2024-01-10T14:23:36;-0.70;99.90
60033;DHT22;45905;50.570;10.428;2024-01-10T14:33:44;-0.50;99.90
60033;DHT22;45905;50.570;10.428;2024-01-10T14:36:12;-0.50;99.90
60033;DHT22;45905;50.570;10.428;2024-01-10T14:38:40;-0.40;99.90
60033;DHT22;45905;50.570;10.428;2024-01-10T14:43:37;-0.40;99.90
60033;DHT22;45905;50.570;10.428;2024-01-10T14:48:35;-0.30;99.90
60033;DHT22;45905;50.570;10.428;2024-01-10T14:53:31;-0.40;99.90
60033;DHT22;45905;50.570;10.428;2024-01-10T14:55:59;-0.30;99.90
60033;DHT22;45905;50.570;10.428;2024-01-10T14:58:26;-0.40;99.90
60033;DHT22;45905;50.570;10.428;2024-01-10T15:00:53;-0.30;99.90
60033;DHT22;45905;50.570;10.428;2024-01-10T15:03:22;-0.50;99.90
60033;DHT22;45905;50.570;10.428;2024-01-10T15:05:53;-0.50;99.90
60033;DHT22;45905;50.570;10.428;2024-01-10T15:08:21;-0.60;99.90
60033;DHT22;45905;50.570;10.428;2024-01-10T15:10:49;-0.70;99.90
60033;DHT22;45905;50.570;10.428;2024-01-10T15:13:16;-0.70;99.90
60033;DHT22;45905;50.570;10.428;2024-01-10T15:15:45;-0.70;99.90
60033;DHT22;45905;50.570;10.428;2024-01-10T15:18:12;-0.80;99.90
60033;DHT22;45905;50.570;10.428;2024-01-10T15:20:40;-0.40;99.90
60033;DHT22;45905;50.570;10.428;2024-01-10T15:23:07;-0.90;99.90
60033;DHT22;45905;50.570;10.428;2024-01-10T15:25:35;-1.00;99.90
60033;DHT22;45905;50.570;10.428;2024-01-10T15:28:03;-1.00;99.90
60033;DHT22;45905;50.570;10.428;2024-01-10T15:30:33;-1.10;99.90
60033;DHT22;45905;50.570;10.428;2024-01-10T15:33:13;-1.20;99.90
60033;DHT22;45905;50.570;10.428;2024-01-10T15:35:40;-1.20;99.90
60033;DHT22;45905;50.570;10.428;2024-01-10T15:38:08;-1.30;99.90
60033;DHT22;45905;50.570;10.428;2024-01-10T15:40:39;-1.40;99.90
60033;DHT22;45905;50.570;10.428;2024-01-10T15:43:07;-1.40;99.90
60033;DHT22;45905;50.570;10.428;2024-01-10T15:45:35;-1.50;99.90
60033;DHT22;45905;50.570;10.428;2024-01-10T15:48:03;-1.50;99.90
60033;DHT22;45905;50.570;10.428;2024-01-10T15:50:31;-1.60;99.90
60033;DHT22;45905;50.570;10.428;2024-01-10T15:52:59;-1.70;99.90
60033;DHT22;45905;50.570;10.428;2024-01-10T15:55:26;-1.70;99.90
60033;DHT22;45905;50.570;10.428;2024-01-10T15:57:54;-1.80;99.90